sensor_id;sensor_type;location;lat;lon;timestamp;P1;durP1;ratioP1;P2;durP2;ratioP2
64877;SDS011;51370;45.144;36.784;2022-07-29T00:02:15;8.18;;;4.40;;
64877;SDS011;51370;45.144;36.784;2022-07-29T00:04:41;7.75;;;4.70;;
64877;SDS011;51370;45.144;36.784;2022-07-29T00:07:07;5.90;;;4.20;;
64877;SDS011;51370;45.144;36.784;2022-07-29T00:09:33;6.75;;;4.55;;
64877;SDS011;51370;45.144;36.784;2022-07-29T00:11:59;6.25;;;4.22;;
64877;SDS011;51370;45.144;36.784;2022-07-29T00:14:26;5.93;;;4.20;;
64877;SDS011;51370;45.144;36.784;2022-07-29T00:16:53;6.72;;;4.10;;
64877;SDS011;51370;45.144;36.784;2022-07-29T00:19:19;8.15;;;4.60;;
64877;SDS011;51370;45.144;36.784;2022-07-29T00:21:46;6.47;;;4.40;;
64877;SDS011;51370;45.144;36.784;2022-07-29T00:24:12;7.10;;;4.90;;
64877;SDS011;51370;45.144;36.784;2022-07-29T00:26:38;8.02;;;4.75;;
64877;SDS011;51370;45.144;36.784;2022-07-29T00:29:04;9.50;;;4.88;;
64877;SDS011;51370;45.144;36.784;2022-07-29T00:31:30;6.70;;;4.57;;
64877;SDS011;51370;45.144;36.784;2022-07-29T00:33:56;6.32;;;4.55;;
64877;SDS011;51370;45.144;36.784;2022-07-29T00:36:23;7.90;;;4.88;;
64877;SDS011;51370;45.144;36.784;2022-07-29T00:38:49;8.45;;;4.93;;
64877;SDS011;51370;45.144;36.784;2022-07-29T00:41:16;7.68;;;5.50;;
64877;SDS011;51370;45.144;36.784;2022-07-29T00:43:43;8.77;;;5.03;;
64877;SDS011;51370;45.144;36.784;2022-07-29T00:46:10;10.48;;;5.70;;
64877;SDS011;51370;45.144;36.784;2022-07-29T00:48:36;9.70;;;5.35;;
64877;SDS011;51370;45.144;36.784;2022-07-29T00:51:05;9.07;;;5.63;;
64877;SDS011;51370;45.144;36.784;2022-07-29T00:53:32;7.72;;;5.05;;
64877;SDS011;51370;45.144;36.784;2022-07-29T00:56:00;13.38;;;5.97;;
64877;SDS011;51370;45.144;36.784;2022-07-29T00:58:26;6.82;;;4.97;;
64877;SDS011;51370;45.144;36.784;2022-07-29T01:00:53;8.65;;;5.45;;
64877;SDS011;51370;45.144;36.784;2022-07-29T01:03:19;10.35;;;5.28;;
64877;SDS011;51370;45.144;36.784;2022-07-29T01:05:45;11.27;;;5.63;;
64877;SDS011;51370;45.144;36.784;2022-07-29T01:08:12;6.18;;;4.40;;
64877;SDS011;51370;45.144;36.784;2022-07-29T01:10:40;9.90;;;5.50;;
64877;SDS011;51370;45.144;36.784;2022-07-29T01:13:09;9.18;;;5.65;;
64877;SDS011;51370;45.144;36.784;2022-07-29T01:15:46;10.98;;;5.53;;
64877;SDS011;51370;45.144;36.784;2022-07-29T01:18:37;8.70;;;5.15;;
64877;SDS011;51370;45.144;36.784;2022-07-29T01:27:14;9.63;;;6.03;;
64877;SDS011;51370;45.144;36.784;2022-07-29T01:29:58;11.10;;;6.03;;
64877;SDS011;51370;45.144;36.784;2022-07-29T01:32:31;10.27;;;5.57;;
64877;SDS011;51370;45.144;36.784;2022-07-29T01:35:03;10.05;;;5.65;;
64877;SDS011;51370;45.144;36.784;2022-07-29T01:37:57;9.65;;;5.82;;
64877;SDS011;51370;45.144;36.784;2022-07-29T01:40:43;11.30;;;6.40;;
64877;SDS011;51370;45.144;36.784;2022-07-29T01:43:14;6.93;;;5.22;;
64877;SDS011;51370;45.144;36.784;2022-07-29T01:45:48;9.18;;;5.85;;
64877;SDS011;51370;45.144;36.784;2022-07-29T01:48:23;10.13;;;6.07;;
64877;SDS011;51370;45.144;36.784;2022-07-29T01:53:38;7.93;;;5.40;;
64877;SDS011;51370;45.144;36.784;2022-07-29T01:56:11;10.95;;;5.85;;
64877;SDS011;51370;45.144;36.784;2022-07-29T01:58:40;8.18;;;5.47;;
64877;SDS011;51370;45.144;36.784;2022-07-29T02:01:09;10.48;;;5.95;;
64877;SDS011;51370;45.144;36.784;2022-07-29T02:03:37;8.63;;;5.63;;
64877;SDS011;51370;45.144;36.784;2022-07-29T02:06:04;12.02;;;6.55;;
64877;SDS011;51370;45.144;36.784;2022-07-29T02:08:32;12.57;;;6.15;;
64877;SDS011;51370;45.144;36.784;2022-07-29T02:11:00;8.05;;;5.43;;
64877;SDS011;51370;45.144;36.784;2022-07-29T02:13:27;10.70;;;6.05;;
64877;SDS011;51370;45.144;36.784;2022-07-29T02:15:55;9.75;;;6.13;;
64877;SDS011;51370;45.144;36.784;2022-07-29T02:18:23;10.88;;;6.15;;
64877;SDS011;51370;45.144;36.784;2022-07-29T02:20:53;10.10;;;6.22;;
64877;SDS011;51370;45.144;36.784;2022-07-29T02:23:22;10.00;;;6.22;;
64877;SDS011;51370;45.144;36.784;2022-07-29T02:25:50;11.90;;;6.15;;
64877;SDS011;51370;45.144;36.784;2022-07-29T02:28:19;10.95;;;6.05;;
64877;SDS011;51370;45.144;36.784;2022-07-29T02:30:47;9.85;;;6.43;;
64877;SDS011;51370;45.144;36.784;2022-07-29T02:33:16;8.02;;;5.90;;
64877;SDS011;51370;45.144;36.784;2022-07-29T02:35:47;9.98;;;6.63;;
64877;SDS011;51370;45.144;36.784;2022-07-29T02:38:15;10.05;;;6.57;;
64877;SDS011;51370;45.144;36.784;2022-07-29T02:41:03;9.10;;;5.95;;
64877;SDS011;51370;45.144;36.784;2022-07-29T02:43:34;10.53;;;6.50;;
64877;SDS011;51370;45.144;36.784;2022-07-29T02:46:02;9.52;;;6.75;;
64877;SDS011;51370;45.144;36.784;2022-07-29T02:48:34;16.33;;;6.63;;
64877;SDS011;51370;45.144;36.784;2022-07-29T02:51:08;9.18;;;6.30;;
64877;SDS011;51370;45.144;36.784;2022-07-29T02:53:41;9.73;;;6.57;;
64877;SDS011;51370;45.144;36.784;2022-07-29T02:56:13;9.50;;;6.80;;
64877;SDS011;51370;45.144;36.784;2022-07-29T02:58:42;15.45;;;6.60;;
64877;SDS011;51370;45.144;36.784;2022-07-29T03:01:24;11.73;;;6.68;;
64877;SDS011;51370;45.144;36.784;2022-07-29T03:03:56;11.15;;;6.70;;
64877;SDS011;51370;45.144;36.784;2022-07-29T03:06:26;12.00;;;6.78;;
64877;SDS011;51370;45.144;36.784;2022-07-29T03:08:57;10.60;;;6.50;;
64877;SDS011;51370;45.144;36.784;2022-07-29T03:11:27;12.60;;;7.32;;
64877;SDS011;51370;45.144;36.784;2022-07-29T03:13:54;9.77;;;6.65;;
64877;SDS011;51370;45.144;36.784;2022-07-29T03:16:22;13.43;;;6.30;;
64877;SDS011;51370;45.144;36.784;2022-07-29T03:18:50;18.45;;;7.32;;
64877;SDS011;51370;45.144;36.784;2022-07-29T03:21:18;10.93;;;6.88;;
64877;SDS011;51370;45.144;36.784;2022-07-29T03:23:45;11.27;;;7.40;;
64877;SDS011;51370;45.144;36.784;2022-07-29T03:26:13;10.68;;;7.50;;
64877;SDS011;51370;45.144;36.784;2022-07-29T03:28:41;12.30;;;7.95;;
64877;SDS011;51370;45.144;36.784;2022-07-29T03:31:10;12.07;;;7.38;;
64877;SDS011;51370;45.144;36.784;2022-07-29T03:33:38;9.55;;;6.95;;
64877;SDS011;51370;45.144;36.784;2022-07-29T03:36:04;9.50;;;7.32;;
64877;SDS011;51370;45.144;36.784;2022-07-29T03:38:30;13.23;;;7.43;;
64877;SDS011;51370;45.144;36.784;2022-07-29T03:41:02;11.18;;;6.70;;
64877;SDS011;51370;45.144;36.784;2022-07-29T03:43:34;9.98;;;7.05;;
64877;SDS011;51370;45.144;36.784;2022-07-29T03:46:09;9.90;;;6.55;;
64877;SDS011;51370;45.144;36.784;2022-07-29T03:48:39;8.50;;;6.32;;
64877;SDS011;51370;45.144;36.784;2022-07-29T03:51:08;8.95;;;5.63;;
64877;SDS011;51370;45.144;36.784;2022-07-29T03:53:36;8.27;;;6.32;;
64877;SDS011;51370;45.144;36.784;2022-07-29T03:56:03;8.13;;;5.03;;
64877;SDS011;51370;45.144;36.784;2022-07-29T03:58:32;8.10;;;5.43;;
64877;SDS011;51370;45.144;36.784;2022-07-29T04:00:58;11.13;;;5.65;;
64877;SDS011;51370;45.144;36.784;2022-07-29T04:03:25;6.75;;;5.55;;
64877;SDS011;51370;45.144;36.784;2022-07-29T04:06:24;6.50;;;4.80;;
64877;SDS011;51370;45.144;36.784;2022-07-29T04:08:43;7.32;;;4.50;;
64877;SDS011;51370;45.144;36.784;2022-07-29T04:11:09;6.30;;;4.90;;
64877;SDS011;51370;45.144;36.784;2022-07-29T04:13:35;7.30;;;4.90;;
64877;SDS011;51370;45.144;36.784;2022-07-29T04:16:01;5.97;;;4.72;;
64877;SDS011;51370;45.144;36.784;2022-07-29T04:18:28;6.13;;;4.78;;
64877;SDS011;51370;45.144;36.784;2022-07-29T04:20:54;6.80;;;4.75;;
64877;SDS011;51370;45.144;36.784;2022-07-29T04:23:20;6.28;;;4.57;;
64877;SDS011;51370;45.144;36.784;2022-07-29T04:25:46;6.13;;;4.57;;
64877;SDS011;51370;45.144;36.784;2022-07-29T04:28:13;7.00;;;4.68;;
64877;SDS011;51370;45.144;36.784;2022-07-29T04:30:39;5.90;;;4.93;;
64877;SDS011;51370;45.144;36.784;2022-07-29T04:33:06;6.65;;;4.72;;
64877;SDS011;51370;45.144;36.784;2022-07-29T04:35:34;7.63;;;4.70;;
64877;SDS011;51370;45.144;36.784;2022-07-29T04:38:01;6.65;;;4.85;;
64877;SDS011;51370;45.144;36.784;2022-07-29T04:40:28;5.95;;;4.53;;
64877;SDS011;51370;45.144;36.784;2022-07-29T04:42:54;6.32;;;4.75;;
64877;SDS011;51370;45.144;36.784;2022-07-29T04:45:20;7.72;;;4.35;;
64877;SDS011;51370;45.144;36.784;2022-07-29T04:47:47;7.85;;;4.15;;
64877;SDS011;51370;45.144;36.784;2022-07-29T04:50:13;5.10;;;4.22;;
64877;SDS011;51370;45.144;36.784;2022-07-29T04:52:40;4.78;;;3.88;;
64877;SDS011;51370;45.144;36.784;2022-07-29T04:55:06;4.85;;;3.80;;
64877;SDS011;51370;45.144;36.784;2022-07-29T04:57:32;5.78;;;4.10;;
64877;SDS011;51370;45.144;36.784;2022-07-29T04:59:58;5.70;;;4.38;;
64877;SDS011;51370;45.144;36.784;2022-07-29T05:02:25;4.32;;;3.70;;
64877;SDS011;51370;45.144;36.784;2022-07-29T05:04:51;6.38;;;4.45;;
64877;SDS011;51370;45.144;36.784;2022-07-29T05:07:17;8.13;;;4.25;;
64877;SDS011;51370;45.144;36.784;2022-07-29T05:09:43;5.53;;;4.03;;
64877;SDS011;51370;45.144;36.784;2022-07-29T05:12:09;4.88;;;3.65;;
64877;SDS011;51370;45.144;36.784;2022-07-29T05:14:36;4.65;;;3.88;;
64877;SDS011;51370;45.144;36.784;2022-07-29T05:17:02;4.88;;;3.78;;
64877;SDS011;51370;45.144;36.784;2022-07-29T05:19:28;3.85;;;3.45;;
64877;SDS011;51370;45.144;36.784;2022-07-29T05:21:54;5.13;;;3.90;;
64877;SDS011;51370;45.144;36.784;2022-07-29T05:24:20;4.13;;;3.63;;
64877;SDS011;51370;45.144;36.784;2022-07-29T05:26:46;4.88;;;3.88;;
64877;SDS011;51370;45.144;36.784;2022-07-29T05:29:12;3.95;;;3.55;;
64877;SDS011;51370;45.144;36.784;2022-07-29T05:31:38;4.18;;;3.70;;
64877;SDS011;51370;45.144;36.784;2022-07-29T05:34:04;5.47;;;3.42;;
64877;SDS011;51370;45.144;36.784;2022-07-29T05:36:30;5.38;;;3.67;;
64877;SDS011;51370;45.144;36.784;2022-07-29T05:38:56;5.05;;;4.38;;
64877;SDS011;51370;45.144;36.784;2022-07-29T05:41:22;6.47;;;3.85;;
64877;SDS011;51370;45.144;36.784;2022-07-29T05:43:49;4.18;;;3.13;;
64877;SDS011;51370;45.144;36.784;2022-07-29T05:46:15;5.45;;;4.07;;
64877;SDS011;51370;45.144;36.784;2022-07-29T05:48:42;3.97;;;3.47;;
64877;SDS011;51370;45.144;36.784;2022-07-29T05:51:08;8.45;;;3.83;;
64877;SDS011;51370;45.144;36.784;2022-07-29T05:53:35;4.80;;;3.33;;
64877;SDS011;51370;45.144;36.784;2022-07-29T05:56:04;4.45;;;3.42;;
64877;SDS011;51370;45.144;36.784;2022-07-29T05:58:31;5.50;;;4.00;;
64877;SDS011;51370;45.144;36.784;2022-07-29T06:00:57;6.90;;;3.97;;
64877;SDS011;51370;45.144;36.784;2022-07-29T06:03:26;5.45;;;3.90;;
64877;SDS011;51370;45.144;36.784;2022-07-29T06:05:52;5.03;;;4.07;;
64877;SDS011;51370;45.144;36.784;2022-07-29T06:08:19;4.70;;;4.03;;
64877;SDS011;51370;45.144;36.784;2022-07-29T06:10:45;5.03;;;4.13;;
64877;SDS011;51370;45.144;36.784;2022-07-29T06:13:11;4.13;;;3.70;;
64877;SDS011;51370;45.144;36.784;2022-07-29T06:15:38;4.80;;;3.90;;
64877;SDS011;51370;45.144;36.784;2022-07-29T06:18:04;4.57;;;3.63;;
64877;SDS011;51370;45.144;36.784;2022-07-29T06:20:35;4.00;;;3.22;;
64877;SDS011;51370;45.144;36.784;2022-07-29T06:23:01;4.15;;;3.42;;
64877;SDS011;51370;45.144;36.784;2022-07-29T06:25:29;4.07;;;3.25;;
64877;SDS011;51370;45.144;36.784;2022-07-29T06:27:57;4.10;;;3.38;;
64877;SDS011;51370;45.144;36.784;2022-07-29T06:30:23;7.95;;;3.78;;
64877;SDS011;51370;45.144;36.784;2022-07-29T06:32:49;3.40;;;3.10;;
64877;SDS011;51370;45.144;36.784;2022-07-29T06:35:15;9.13;;;3.45;;
64877;SDS011;51370;45.144;36.784;2022-07-29T06:37:41;3.90;;;3.47;;
64877;SDS011;51370;45.144;36.784;2022-07-29T06:40:07;4.18;;;3.28;;
64877;SDS011;51370;45.144;36.784;2022-07-29T06:42:53;4.57;;;3.60;;
64877;SDS011;51370;45.144;36.784;2022-07-29T06:45:19;3.90;;;3.40;;
64877;SDS011;51370;45.144;36.784;2022-07-29T06:47:45;4.60;;;3.53;;
64877;SDS011;51370;45.144;36.784;2022-07-29T06:50:11;8.52;;;4.03;;
64877;SDS011;51370;45.144;36.784;2022-07-29T06:52:38;4.70;;;3.20;;
64877;SDS011;51370;45.144;36.784;2022-07-29T06:55:06;3.70;;;3.35;;
64877;SDS011;51370;45.144;36.784;2022-07-29T06:57:32;4.75;;;3.30;;
64877;SDS011;51370;45.144;36.784;2022-07-29T06:59:59;4.28;;;3.65;;
64877;SDS011;51370;45.144;36.784;2022-07-29T07:02:25;5.25;;;3.38;;
64877;SDS011;51370;45.144;36.784;2022-07-29T07:04:51;3.85;;;3.38;;
64877;SDS011;51370;45.144;36.784;2022-07-29T07:07:17;3.63;;;3.33;;
64877;SDS011;51370;45.144;36.784;2022-07-29T07:09:43;4.35;;;3.55;;
64877;SDS011;51370;45.144;36.784;2022-07-29T07:12:09;10.15;;;5.20;;
64877;SDS011;51370;45.144;36.784;2022-07-29T07:14:36;5.05;;;3.72;;
64877;SDS011;51370;45.144;36.784;2022-07-29T07:17:02;4.07;;;3.45;;
64877;SDS011;51370;45.144;36.784;2022-07-29T07:19:29;3.92;;;3.03;;
64877;SDS011;51370;45.144;36.784;2022-07-29T07:21:55;4.38;;;3.40;;
64877;SDS011;51370;45.144;36.784;2022-07-29T07:24:21;3.45;;;2.83;;
64877;SDS011;51370;45.144;36.784;2022-07-29T07:26:47;4.75;;;3.15;;
64877;SDS011;51370;45.144;36.784;2022-07-29T07:29:13;3.35;;;3.05;;
64877;SDS011;51370;45.144;36.784;2022-07-29T07:31:39;4.03;;;3.53;;
64877;SDS011;51370;45.144;36.784;2022-07-29T07:34:05;5.40;;;3.28;;
64877;SDS011;51370;45.144;36.784;2022-07-29T07:36:31;4.88;;;3.17;;
64877;SDS011;51370;45.144;36.784;2022-07-29T07:38:57;4.78;;;3.45;;
64877;SDS011;51370;45.144;36.784;2022-07-29T07:41:23;3.97;;;3.33;;
64877;SDS011;51370;45.144;36.784;2022-07-29T07:43:49;6.05;;;3.70;;
64877;SDS011;51370;45.144;36.784;2022-07-29T07:46:15;4.47;;;3.55;;
64877;SDS011;51370;45.144;36.784;2022-07-29T07:48:42;11.18;;;3.65;;
64877;SDS011;51370;45.144;36.784;2022-07-29T07:51:08;3.58;;;3.28;;
64877;SDS011;51370;45.144;36.784;2022-07-29T07:53:34;3.92;;;3.20;;
64877;SDS011;51370;45.144;36.784;2022-07-29T07:56:03;4.13;;;3.28;;
64877;SDS011;51370;45.144;36.784;2022-07-29T07:58:31;3.45;;;3.10;;
64877;SDS011;51370;45.144;36.784;2022-07-29T08:00:58;13.73;;;3.90;;
64877;SDS011;51370;45.144;36.784;2022-07-29T08:03:24;8.75;;;3.45;;
64877;SDS011;51370;45.144;36.784;2022-07-29T08:05:50;5.22;;;3.33;;
64877;SDS011;51370;45.144;36.784;2022-07-29T08:08:17;4.35;;;3.63;;
64877;SDS011;51370;45.144;36.784;2022-07-29T08:10:44;3.78;;;3.40;;
64877;SDS011;51370;45.144;36.784;2022-07-29T08:13:21;4.32;;;3.05;;
64877;SDS011;51370;45.144;36.784;2022-07-29T08:15:50;4.53;;;3.47;;
64877;SDS011;51370;45.144;36.784;2022-07-29T08:18:36;4.32;;;3.45;;
64877;SDS011;51370;45.144;36.784;2022-07-29T08:21:02;3.40;;;3.10;;
64877;SDS011;51370;45.144;36.784;2022-07-29T08:23:29;12.25;;;3.72;;
64877;SDS011;51370;45.144;36.784;2022-07-29T08:26:12;3.83;;;3.33;;
64877;SDS011;51370;45.144;36.784;2022-07-29T08:28:42;3.35;;;3.05;;
64877;SDS011;51370;45.144;36.784;2022-07-29T08:31:14;3.70;;;3.28;;
64877;SDS011;51370;45.144;36.784;2022-07-29T08:33:41;3.45;;;3.15;;
64877;SDS011;51370;45.144;36.784;2022-07-29T08:36:08;3.25;;;2.90;;
64877;SDS011;51370;45.144;36.784;2022-07-29T08:38:34;4.68;;;2.55;;
64877;SDS011;51370;45.144;36.784;2022-07-29T08:41:01;3.45;;;3.15;;
64877;SDS011;51370;45.144;36.784;2022-07-29T08:43:30;5.72;;;2.95;;
64877;SDS011;51370;45.144;36.784;2022-07-29T08:45:58;3.80;;;3.13;;
64877;SDS011;51370;45.144;36.784;2022-07-29T08:48:24;3.22;;;2.92;;
64877;SDS011;51370;45.144;36.784;2022-07-29T08:50:52;3.05;;;2.75;;
64877;SDS011;51370;45.144;36.784;2022-07-29T08:53:21;3.42;;;2.95;;
64877;SDS011;51370;45.144;36.784;2022-07-29T08:55:49;3.33;;;3.03;;
64877;SDS011;51370;45.144;36.784;2022-07-29T08:58:16;4.18;;;3.58;;
64877;SDS011;51370;45.144;36.784;2022-07-29T09:00:46;3.92;;;3.40;;
64877;SDS011;51370;45.144;36.784;2022-07-29T09:03:20;5.30;;;2.97;;
64877;SDS011;51370;45.144;36.784;2022-07-29T09:05:52;3.53;;;3.22;;
64877;SDS011;51370;45.144;36.784;2022-07-29T09:08:19;3.60;;;3.30;;
64877;SDS011;51370;45.144;36.784;2022-07-29T09:10:45;3.25;;;2.92;;
64877;SDS011;51370;45.144;36.784;2022-07-29T09:13:11;3.60;;;3.10;;
64877;SDS011;51370;45.144;36.784;2022-07-29T09:15:37;4.15;;;3.38;;
64877;SDS011;51370;45.144;36.784;2022-07-29T09:18:03;3.80;;;3.45;;
64877;SDS011;51370;45.144;36.784;2022-07-29T09:20:29;3.45;;;3.15;;
64877;SDS011;51370;45.144;36.784;2022-07-29T09:23:15;4.05;;;3.33;;
64877;SDS011;51370;45.144;36.784;2022-07-29T09:25:41;3.53;;;3.22;;
64877;SDS011;51370;45.144;36.784;2022-07-29T09:28:12;3.80;;;3.42;;
64877;SDS011;51370;45.144;36.784;2022-07-29T09:30:56;3.55;;;3.22;;
64877;SDS011;51370;45.144;36.784;2022-07-29T09:33:30;6.00;;;3.10;;
64877;SDS011;51370;45.144;36.784;2022-07-29T09:36:02;4.05;;;3.47;;
64877;SDS011;51370;45.144;36.784;2022-07-29T09:38:33;3.90;;;3.20;;
64877;SDS011;51370;45.144;36.784;2022-07-29T09:41:03;3.35;;;2.80;;
64877;SDS011;51370;45.144;36.784;2022-07-29T09:43:30;5.13;;;3.40;;
64877;SDS011;51370;45.144;36.784;2022-07-29T09:45:56;3.45;;;3.05;;
64877;SDS011;51370;45.144;36.784;2022-07-29T09:48:36;5.43;;;3.58;;
64877;SDS011;51370;45.144;36.784;2022-07-29T09:51:01;3.45;;;3.15;;
64877;SDS011;51370;45.144;36.784;2022-07-29T09:53:36;3.83;;;3.50;;
64877;SDS011;51370;45.144;36.784;2022-07-29T09:56:04;3.80;;;3.30;;
64877;SDS011;51370;45.144;36.784;2022-07-29T09:58:31;3.47;;;3.13;;
64877;SDS011;51370;45.144;36.784;2022-07-29T10:01:00;3.55;;;3.25;;
64877;SDS011;51370;45.144;36.784;2022-07-29T10:03:28;3.30;;;3.00;;
64877;SDS011;51370;45.144;36.784;2022-07-29T10:06:10;3.67;;;3.30;;
64877;SDS011;51370;45.144;36.784;2022-07-29T10:08:38;4.70;;;3.67;;
64877;SDS011;51370;45.144;36.784;2022-07-29T10:11:11;3.72;;;3.42;;
64877;SDS011;51370;45.144;36.784;2022-07-29T10:13:42;3.67;;;3.22;;
64877;SDS011;51370;45.144;36.784;2022-07-29T10:16:09;3.33;;;3.03;;
64877;SDS011;51370;45.144;36.784;2022-07-29T10:18:37;3.20;;;2.90;;
64877;SDS011;51370;45.144;36.784;2022-07-29T10:21:04;4.13;;;3.45;;
64877;SDS011;51370;45.144;36.784;2022-07-29T10:23:32;3.28;;;3.00;;
64877;SDS011;51370;45.144;36.784;2022-07-29T10:26:00;2.97;;;2.75;;
64877;SDS011;51370;45.144;36.784;2022-07-29T10:28:29;3.50;;;3.20;;
64877;SDS011;51370;45.144;36.784;2022-07-29T10:31:00;3.60;;;3.30;;
64877;SDS011;51370;45.144;36.784;2022-07-29T10:39:27;4.03;;;3.22;;
64877;SDS011;51370;45.144;36.784;2022-07-29T10:44:44;4.35;;;3.30;;
64877;SDS011;51370;45.144;36.784;2022-07-29T10:47:20;3.47;;;3.17;;
64877;SDS011;51370;45.144;36.784;2022-07-29T10:50:00;3.42;;;3.10;;
64877;SDS011;51370;45.144;36.784;2022-07-29T10:58:22;3.85;;;3.50;;
64877;SDS011;51370;45.144;36.784;2022-07-29T11:00:50;4.32;;;3.30;;
64877;SDS011;51370;45.144;36.784;2022-07-29T11:06:17;3.45;;;3.10;;
64877;SDS011;51370;45.144;36.784;2022-07-29T11:08:43;3.10;;;2.85;;
64877;SDS011;51370;45.144;36.784;2022-07-29T11:13:44;3.38;;;3.08;;
64877;SDS011;51370;45.144;36.784;2022-07-29T11:16:18;3.80;;;3.10;;
64877;SDS011;51370;45.144;36.784;2022-07-29T11:21:39;3.20;;;2.90;;
64877;SDS011;51370;45.144;36.784;2022-07-29T11:24:13;3.30;;;3.00;;
64877;SDS011;51370;45.144;36.784;2022-07-29T11:26:40;3.40;;;3.10;;
64877;SDS011;51370;45.144;36.784;2022-07-29T11:29:18;4.35;;;3.10;;
64877;SDS011;51370;45.144;36.784;2022-07-29T11:31:49;3.75;;;3.38;;
64877;SDS011;51370;45.144;36.784;2022-07-29T11:37:23;3.13;;;2.83;;
64877;SDS011;51370;45.144;36.784;2022-07-29T11:47:27;3.95;;;3.50;;
64877;SDS011;51370;45.144;36.784;2022-07-29T11:49:58;3.10;;;2.90;;
64877;SDS011;51370;45.144;36.784;2022-07-29T11:52:39;3.38;;;3.08;;
64877;SDS011;51370;45.144;36.784;2022-07-29T11:55:11;3.53;;;3.22;;
64877;SDS011;51370;45.144;36.784;2022-07-29T11:57:52;3.47;;;3.17;;
64877;SDS011;51370;45.144;36.784;2022-07-29T12:00:30;3.33;;;3.10;;
64877;SDS011;51370;45.144;36.784;2022-07-29T12:02:58;3.50;;;3.20;;
64877;SDS011;51370;45.144;36.784;2022-07-29T12:05:31;3.95;;;3.30;;
64877;SDS011;51370;45.144;36.784;2022-07-29T12:08:09;3.95;;;3.50;;
64877;SDS011;51370;45.144;36.784;2022-07-29T12:10:40;4.18;;;3.33;;
64877;SDS011;51370;45.144;36.784;2022-07-29T12:13:08;3.90;;;3.60;;
64877;SDS011;51370;45.144;36.784;2022-07-29T12:15:34;3.58;;;3.28;;
64877;SDS011;51370;45.144;36.784;2022-07-29T12:18:21;4.07;;;3.67;;
64877;SDS011;51370;45.144;36.784;2022-07-29T12:20:47;3.80;;;3.50;;
64877;SDS011;51370;45.144;36.784;2022-07-29T12:23:13;4.82;;;3.45;;
64877;SDS011;51370;45.144;36.784;2022-07-29T12:25:42;3.65;;;3.35;;
64877;SDS011;51370;45.144;36.784;2022-07-29T12:28:11;7.97;;;4.25;;
64877;SDS011;51370;45.144;36.784;2022-07-29T12:30:42;4.40;;;4.00;;
64877;SDS011;51370;45.144;36.784;2022-07-29T12:35:44;4.28;;;3.60;;
64877;SDS011;51370;45.144;36.784;2022-07-29T12:38:14;4.32;;;3.92;;
64877;SDS011;51370;45.144;36.784;2022-07-29T12:40:42;3.97;;;3.50;;
64877;SDS011;51370;45.144;36.784;2022-07-29T12:43:11;5.70;;;4.13;;
64877;SDS011;51370;45.144;36.784;2022-07-29T12:45:39;4.18;;;3.80;;
64877;SDS011;51370;45.144;36.784;2022-07-29T12:48:09;4.85;;;3.72;;
64877;SDS011;51370;45.144;36.784;2022-07-29T12:50:50;3.90;;;3.60;;
64877;SDS011;51370;45.144;36.784;2022-07-29T12:53:19;3.42;;;3.20;;
64877;SDS011;51370;45.144;36.784;2022-07-29T12:55:46;4.10;;;3.72;;
64877;SDS011;51370;45.144;36.784;2022-07-29T12:58:28;3.90;;;3.50;;
64877;SDS011;51370;45.144;36.784;2022-07-29T13:01:04;3.58;;;3.28;;
64877;SDS011;51370;45.144;36.784;2022-07-29T13:03:42;3.67;;;3.38;;
64877;SDS011;51370;45.144;36.784;2022-07-29T13:06:36;4.28;;;3.83;;
64877;SDS011;51370;45.144;36.784;2022-07-29T13:09:13;5.45;;;3.40;;
64877;SDS011;51370;45.144;36.784;2022-07-29T13:11:41;7.85;;;3.65;;
64877;SDS011;51370;45.144;36.784;2022-07-29T13:14:13;7.10;;;3.35;;
64877;SDS011;51370;45.144;36.784;2022-07-29T13:17:00;6.05;;;3.38;;
64877;SDS011;51370;45.144;36.784;2022-07-29T13:22:13;3.53;;;3.22;;
64877;SDS011;51370;45.144;36.784;2022-07-29T13:24:53;5.90;;;3.15;;
64877;SDS011;51370;45.144;36.784;2022-07-29T13:27:24;3.33;;;3.03;;
64877;SDS011;51370;45.144;36.784;2022-07-29T13:29:52;5.57;;;2.95;;
64877;SDS011;51370;45.144;36.784;2022-07-29T13:32:22;3.97;;;2.60;;
64877;SDS011;51370;45.144;36.784;2022-07-29T13:34:53;3.17;;;2.87;;
64877;SDS011;51370;45.144;36.784;2022-07-29T13:37:19;3.20;;;2.83;;
64877;SDS011;51370;45.144;36.784;2022-07-29T13:39:45;3.13;;;2.83;;
64877;SDS011;51370;45.144;36.784;2022-07-29T13:42:12;5.35;;;3.25;;
64877;SDS011;51370;45.144;36.784;2022-07-29T13:44:39;9.00;;;3.60;;
64877;SDS011;51370;45.144;36.784;2022-07-29T13:47:06;8.45;;;3.13;;
64877;SDS011;51370;45.144;36.784;2022-07-29T13:49:33;3.67;;;3.10;;
64877;SDS011;51370;45.144;36.784;2022-07-29T13:51:59;4.95;;;3.45;;
64877;SDS011;51370;45.144;36.784;2022-07-29T13:54:26;4.55;;;3.17;;
64877;SDS011;51370;45.144;36.784;2022-07-29T13:56:52;4.45;;;3.03;;
64877;SDS011;51370;45.144;36.784;2022-07-29T13:59:18;4.15;;;3.60;;
64877;SDS011;51370;45.144;36.784;2022-07-29T14:01:44;3.78;;;2.90;;
64877;SDS011;51370;45.144;36.784;2022-07-29T14:04:11;3.28;;;2.95;;
64877;SDS011;51370;45.144;36.784;2022-07-29T14:06:37;7.43;;;3.33;;
64877;SDS011;51370;45.144;36.784;2022-07-29T14:09:03;3.65;;;3.35;;
64877;SDS011;51370;45.144;36.784;2022-07-29T14:11:36;5.03;;;3.40;;
64877;SDS011;51370;45.144;36.784;2022-07-29T14:14:03;5.20;;;3.50;;
64877;SDS011;51370;45.144;36.784;2022-07-29T14:16:30;3.78;;;3.10;;
64877;SDS011;51370;45.144;36.784;2022-07-29T14:18:56;4.20;;;3.42;;
64877;SDS011;51370;45.144;36.784;2022-07-29T14:21:22;3.67;;;3.38;;
64877;SDS011;51370;45.144;36.784;2022-07-29T14:23:48;3.60;;;3.30;;
64877;SDS011;51370;45.144;36.784;2022-07-29T14:26:14;3.97;;;3.67;;
64877;SDS011;51370;45.144;36.784;2022-07-29T14:28:40;6.55;;;3.70;;
64877;SDS011;51370;45.144;36.784;2022-07-29T14:31:07;5.97;;;3.80;;
64877;SDS011;51370;45.144;36.784;2022-07-29T14:33:33;4.75;;;4.18;;
64877;SDS011;51370;45.144;36.784;2022-07-29T14:35:59;6.00;;;3.35;;
64877;SDS011;51370;45.144;36.784;2022-07-29T14:38:25;5.28;;;3.72;;
64877;SDS011;51370;45.144;36.784;2022-07-29T14:40:51;7.68;;;3.90;;
64877;SDS011;51370;45.144;36.784;2022-07-29T14:43:17;4.38;;;3.97;;
64877;SDS011;51370;45.144;36.784;2022-07-29T14:45:43;4.50;;;4.10;;
64877;SDS011;51370;45.144;36.784;2022-07-29T14:48:09;8.20;;;4.00;;
64877;SDS011;51370;45.144;36.784;2022-07-29T14:50:36;5.32;;;4.32;;
64877;SDS011;51370;45.144;36.784;2022-07-29T14:53:03;6.47;;;4.80;;
64877;SDS011;51370;45.144;36.784;2022-07-29T14:55:29;5.97;;;5.28;;
64877;SDS011;51370;45.144;36.784;2022-07-29T14:57:55;5.28;;;4.78;;
64877;SDS011;51370;45.144;36.784;2022-07-29T15:00:22;5.30;;;4.80;;
64877;SDS011;51370;45.144;36.784;2022-07-29T15:02:48;7.60;;;5.50;;
64877;SDS011;51370;45.144;36.784;2022-07-29T15:05:14;6.03;;;5.43;;
64877;SDS011;51370;45.144;36.784;2022-07-29T15:07:40;5.53;;;4.93;;
64877;SDS011;51370;45.144;36.784;2022-07-29T15:10:06;8.93;;;5.80;;
64877;SDS011;51370;45.144;36.784;2022-07-29T15:12:33;9.18;;;5.82;;
64877;SDS011;51370;45.144;36.784;2022-07-29T15:14:59;7.68;;;5.53;;
64877;SDS011;51370;45.144;36.784;2022-07-29T15:17:25;6.60;;;5.10;;
64877;SDS011;51370;45.144;36.784;2022-07-29T15:19:51;7.70;;;5.30;;
64877;SDS011;51370;45.144;36.784;2022-07-29T15:22:17;5.75;;;4.90;;
64877;SDS011;51370;45.144;36.784;2022-07-29T15:24:43;6.15;;;4.93;;
64877;SDS011;51370;45.144;36.784;2022-07-29T15:27:09;5.88;;;4.68;;
64877;SDS011;51370;45.144;36.784;2022-07-29T15:29:42;7.47;;;5.38;;
64877;SDS011;51370;45.144;36.784;2022-07-29T15:32:09;7.20;;;5.30;;